createdAt,value
2023-04-06T00:01:34.238Z,13.08
2023-04-06T00:04:03.939Z,13.13
2023-04-06T00:06:33.540Z,12.50
2023-04-06T00:09:03.441Z,12.33
2023-04-06T00:11:32.796Z,12.05
2023-04-06T00:14:02.595Z,12.03
2023-04-06T00:16:31.894Z,12.35
2023-04-06T00:19:01.156Z,12.15
2023-04-06T00:21:32.323Z,11.80
2023-04-06T00:24:02.090Z,12.17
2023-04-06T00:26:31.352Z,11.68
2023-04-06T00:29:01.331Z,11.70
2023-04-06T00:31:31.555Z,11.48
2023-04-06T00:34:00.964Z,12.23
2023-04-06T00:36:31.152Z,11.57
2023-04-06T00:39:00.718Z,12.03
2023-04-06T00:41:30.376Z,12.25
2023-04-06T00:43:59.749Z,11.90
2023-04-06T00:46:29.159Z,12.05
2023-04-06T00:48:59.245Z,12.10
2023-04-06T00:51:28.831Z,12.47
2023-04-06T00:53:58.519Z,11.38
2023-04-06T00:56:28.521Z,11.55
2023-04-06T00:58:58.563Z,12.18
2023-04-06T01:01:29.710Z,12.60
2023-04-06T01:04:03.276Z,12.47
2023-04-06T01:06:34.224Z,11.97
2023-04-06T01:09:04.273Z,12.50
2023-04-06T01:11:33.599Z,12.00
2023-04-06T01:14:04.239Z,12.93
2023-04-06T01:16:38.423Z,12.55
2023-04-06T01:19:12.677Z,12.70
2023-04-06T01:21:44.469Z,12.55
2023-04-06T01:24:34.509Z,13.48
2023-04-06T01:27:14.949Z,13.62
2023-04-06T01:29:49.246Z,13.60
2023-04-06T01:32:20.451Z,14.33
2023-04-06T01:34:52.053Z,13.93
2023-04-06T01:37:23.010Z,14.57
2023-04-06T01:39:54.265Z,14.35
2023-04-06T01:42:25.267Z,14.45
2023-04-06T01:44:54.857Z,14.68
2023-04-06T01:47:24.222Z,14.43
2023-04-06T01:49:53.662Z,14.05
2023-04-06T01:52:24.597Z,13.48
2023-04-06T01:54:54.926Z,14.43
2023-04-06T01:57:26.551Z,13.83
2023-04-06T01:59:57.735Z,14.43
2023-04-06T02:02:28.919Z,13.78
2023-04-06T02:05:00.812Z,14.15
2023-04-06T02:07:30.898Z,14.85
2023-04-06T02:10:00.453Z,14.53
2023-04-06T02:12:31.431Z,14.07
2023-04-06T02:15:00.896Z,13.68
2023-04-06T02:17:30.372Z,14.58
2023-04-06T02:20:00.049Z,14.47
2023-04-06T02:22:29.374Z,15.00
2023-04-06T02:24:58.846Z,14.68
2023-04-06T02:27:28.320Z,14.53
2023-04-06T02:29:57.620Z,14.80
2023-04-06T02:32:27.257Z,14.75
2023-04-06T02:34:57.796Z,15.32
2023-04-06T02:37:27.410Z,15.68
2023-04-06T02:39:56.900Z,16.00
2023-04-06T02:42:27.884Z,14.78
2023-04-06T02:44:57.994Z,14.98
2023-04-06T02:47:28.992Z,14.98
2023-04-06T02:49:58.417Z,15.43
2023-04-06T02:52:28.355Z,16.02
2023-04-06T02:54:58.177Z,15.53
2023-04-06T02:57:29.806Z,15.95
2023-04-06T02:59:59.130Z,15.88
2023-04-06T03:02:30.593Z,15.90
2023-04-06T03:05:01.633Z,15.60
2023-04-06T03:07:33.070Z,15.25
2023-04-06T03:10:02.390Z,16.12
2023-04-06T03:12:32.865Z,15.72
2023-04-06T03:15:07.496Z,15.50
2023-04-06T03:17:38.533Z,15.45
2023-04-06T03:20:10.283Z,16.02
2023-04-06T03:22:39.991Z,15.90
2023-04-06T03:25:11.416Z,15.90
2023-04-06T03:27:41.754Z,16.05
2023-04-06T03:30:13.568Z,15.80
2023-04-06T03:32:42.843Z,16.25
2023-04-06T03:35:12.369Z,16.87
2023-04-06T03:37:41.718Z,16.75
2023-04-06T03:40:11.969Z,16.50
2023-04-06T03:42:41.259Z,16.25
2023-04-06T03:45:14.089Z,16.20
2023-04-06T03:47:45.584Z,16.87
2023-04-06T03:50:15.294Z,15.18
2023-04-06T03:52:46.587Z,16.42
2023-04-06T03:55:16.627Z,16.10
2023-04-06T03:57:46.183Z,15.35
2023-04-06T04:00:16.402Z,16.05
2023-04-06T04:02:46.053Z,15.90
2023-04-06T04:05:16.638Z,16.00
2023-04-06T04:07:47.516Z,16.45
2023-04-06T04:10:17.152Z,16.50
2023-04-06T04:12:46.600Z,15.75
2023-04-06T04:15:16.338Z,16.57
2023-04-06T04:17:47.290Z,16.17
2023-04-06T04:20:17.529Z,16.35
2023-04-06T04:22:47.010Z,15.78
2023-04-06T04:25:16.713Z,15.63
2023-04-06T04:27:47.919Z,16.17
2023-04-06T04:30:17.411Z,16.05
2023-04-06T04:32:46.738Z,15.88
2023-04-06T04:35:17.917Z,15.50
2023-04-06T04:37:47.449Z,15.60
2023-04-06T04:40:18.377Z,15.25
2023-04-06T04:42:49.471Z,16.00
2023-04-06T04:45:20.863Z,15.38
2023-04-06T04:47:50.672Z,15.05
2023-04-06T04:50:20.415Z,15.45
2023-04-06T04:52:51.501Z,14.93
2023-04-06T04:55:25.759Z,15.75
2023-04-06T04:57:56.852Z,15.53
2023-04-06T05:00:27.861Z,14.75
2023-04-06T05:02:59.278Z,16.27
2023-04-06T05:05:30.520Z,15.20
2023-04-06T05:08:00.397Z,14.83
2023-04-06T05:10:43.721Z,15.05
2023-04-06T05:13:13.639Z,15.63
2023-04-06T05:15:43.279Z,14.95
2023-04-06T05:18:33.155Z,16.07
2023-04-06T05:21:02.828Z,16.57
2023-04-06T05:23:33.888Z,16.65
2023-04-06T05:26:04.178Z,16.27
2023-04-06T05:28:35.153Z,15.45
2023-04-06T05:31:04.777Z,16.15
2023-04-06T05:33:36.114Z,16.05
2023-04-06T05:36:08.214Z,16.10
2023-04-06T05:38:39.660Z,16.15
2023-04-06T05:41:10.675Z,16.52
2023-04-06T05:43:41.933Z,15.75
2023-04-06T05:46:11.961Z,16.52
2023-04-06T05:48:42.224Z,16.75
2023-04-06T05:51:12.188Z,17.10
2023-04-06T05:53:43.313Z,16.60
2023-04-06T05:56:12.641Z,16.50
2023-04-06T05:58:42.662Z,16.57
2023-04-06T06:01:12.959Z,16.40
2023-04-06T06:03:43.934Z,15.90
2023-04-06T06:06:13.377Z,16.12
2023-04-06T06:08:50.808Z,15.80
2023-04-06T06:11:20.370Z,15.60
2023-04-06T06:13:49.884Z,15.28
2023-04-06T06:16:20.681Z,15.93
2023-04-06T06:18:50.753Z,15.72
2023-04-06T06:21:20.874Z,16.15
2023-04-06T06:23:51.254Z,16.57
2023-04-06T06:26:22.843Z,16.27
2023-04-06T06:28:52.490Z,15.45
2023-04-06T06:31:23.721Z,15.95
2023-04-06T06:33:53.195Z,16.73
2023-04-06T06:36:23.009Z,16.15
2023-04-06T06:38:52.771Z,16.37
2023-04-06T06:41:23.211Z,16.48
2023-04-06T06:43:52.534Z,16.25
2023-04-06T06:46:23.051Z,16.85
2023-04-06T06:48:52.368Z,16.23
2023-04-06T06:51:21.717Z,16.35
2023-04-06T06:53:51.001Z,16.45
2023-04-06T06:56:20.352Z,16.65
2023-04-06T06:58:50.369Z,17.35
2023-04-06T07:01:19.783Z,16.90
2023-04-06T07:03:49.682Z,16.75
2023-04-06T07:06:18.975Z,16.75
2023-04-06T07:08:49.057Z,17.20
2023-04-06T07:11:18.333Z,16.82
2023-04-06T07:13:47.747Z,16.60
2023-04-06T07:16:17.269Z,16.37
2023-04-06T07:18:47.012Z,16.23
2023-04-06T07:21:16.292Z,16.65
2023-04-06T07:23:45.842Z,16.60
2023-04-06T07:26:15.129Z,16.55
2023-04-06T07:28:44.708Z,16.82
2023-04-06T07:31:14.556Z,16.62
2023-04-06T07:33:44.237Z,17.67
2023-04-06T07:36:13.547Z,16.57
2023-04-06T07:38:43.787Z,16.80
2023-04-06T07:41:13.203Z,17.37
2023-04-06T07:43:43.077Z,17.23
2023-04-06T07:46:12.456Z,17.45
2023-04-06T07:48:42.265Z,17.32
2023-04-06T07:51:13.315Z,16.73
2023-04-06T07:53:43.354Z,18.70
2023-04-06T07:56:13.345Z,18.62
2023-04-06T07:58:42.801Z,17.30
2023-04-06T08:01:12.231Z,17.60
2023-04-06T08:03:42.064Z,18.40
2023-04-06T08:06:11.620Z,17.65
2023-04-06T08:08:41.331Z,18.35
2023-04-06T08:11:11.004Z,17.37
2023-04-06T08:13:40.678Z,17.82
2023-04-06T08:16:09.975Z,17.62
2023-04-06T08:18:39.756Z,18.60
2023-04-06T08:21:09.081Z,18.73
2023-04-06T08:23:38.737Z,19.37
2023-04-06T08:26:08.045Z,19.02
2023-04-06T08:28:37.412Z,18.25
2023-04-06T08:31:07.593Z,18.40
2023-04-06T08:33:37.956Z,19.27
2023-04-06T08:36:11.834Z,19.45
2023-04-06T08:38:42.561Z,19.77
2023-04-06T08:41:12.816Z,20.37
2023-04-06T08:43:48.126Z,19.60
2023-04-06T08:46:19.473Z,19.65
2023-04-06T08:48:52.461Z,19.98
2023-04-06T08:51:21.812Z,20.12
2023-04-06T08:53:52.876Z,18.20
2023-04-06T08:56:26.637Z,19.55
2023-04-06T08:58:57.347Z,18.37
2023-04-06T09:01:28.859Z,18.05
2023-04-06T09:04:01.662Z,17.30
2023-04-06T09:06:31.870Z,12.50
2023-04-06T09:09:01.208Z,13.60
2023-04-06T09:11:30.708Z,12.10
2023-04-06T09:13:59.967Z,9.00
2023-04-06T09:16:29.298Z,9.50
2023-04-06T09:19:03.291Z,8.70
2023-04-06T09:21:32.657Z,8.63
2023-04-06T09:24:02.937Z,8.30
2023-04-06T09:26:33.990Z,8.65
2023-04-06T09:29:04.528Z,8.55
2023-04-06T09:31:34.303Z,9.30
2023-04-06T09:34:04.566Z,9.38
2023-04-06T09:36:35.862Z,9.25
2023-04-06T09:39:06.097Z,9.15
2023-04-06T09:41:37.664Z,9.50
2023-04-06T09:44:11.753Z,9.88
2023-04-06T09:46:58.874Z,9.55
2023-04-06T09:49:15.052Z,9.83
2023-04-06T09:52:02.073Z,10.70
2023-04-06T09:54:32.996Z,10.90
2023-04-06T09:57:17.788Z,10.28
2023-04-06T09:59:59.060Z,10.85
2023-04-06T10:02:51.909Z,10.53
2023-04-06T10:08:11.124Z,9.63
2023-04-06T10:10:40.837Z,10.78
2023-04-06T10:13:12.751Z,10.50
2023-04-06T10:15:42.026Z,9.40
2023-04-06T10:18:11.414Z,10.68
2023-04-06T10:20:58.231Z,12.13
2023-04-06T10:23:40.228Z,9.75
2023-04-06T10:26:12.730Z,9.60
2023-04-06T10:31:12.199Z,9.38
2023-04-06T10:33:42.454Z,9.83
2023-04-06T10:36:13.893Z,9.63
2023-04-06T10:38:43.953Z,10.03
2023-04-06T10:41:14.948Z,9.70
2023-04-06T10:43:45.894Z,9.23
2023-04-06T10:46:15.517Z,9.38
2023-04-06T10:48:51.048Z,9.90
2023-04-06T10:51:21.441Z,9.28
2023-04-06T10:53:51.108Z,9.60
2023-04-06T10:56:23.760Z,9.33
2023-04-06T11:01:25.932Z,9.23
2023-04-06T11:04:00.535Z,9.70
2023-04-06T11:06:33.531Z,9.80
2023-04-06T11:09:03.024Z,10.90
2023-04-06T11:11:32.399Z,10.03
2023-04-06T11:14:02.908Z,10.45
2023-04-06T11:16:34.022Z,10.65
2023-04-06T11:19:04.855Z,10.65
2023-04-06T11:21:46.970Z,10.75
2023-04-06T11:24:24.771Z,10.58
2023-04-06T11:26:59.185Z,11.10
2023-04-06T11:29:30.979Z,11.00
2023-04-06T11:32:05.193Z,12.03
2023-04-06T11:34:39.516Z,11.25
2023-04-06T11:37:13.545Z,11.00
2023-04-06T11:39:52.057Z,11.50
2023-04-06T11:42:25.427Z,12.70
2023-04-06T11:44:58.309Z,11.75
2023-04-06T11:47:35.683Z,11.78
2023-04-06T11:50:15.978Z,13.08
2023-04-06T11:52:45.331Z,12.85
2023-04-06T11:55:19.214Z,13.35
2023-04-06T11:57:48.455Z,12.90
2023-04-06T12:00:19.164Z,13.40
2023-04-06T12:02:50.010Z,12.93
2023-04-06T12:05:19.910Z,13.70
2023-04-06T12:07:49.278Z,13.85
2023-04-06T12:10:18.739Z,12.85
2023-04-06T12:12:48.369Z,14.13
2023-04-06T12:15:17.996Z,14.95
2023-04-06T12:17:47.873Z,14.07
2023-04-06T12:20:25.750Z,14.15
2023-04-06T12:22:48.436Z,15.05
2023-04-06T12:25:19.394Z,15.08
2023-04-06T12:27:48.725Z,14.38
2023-04-06T12:30:18.436Z,15.50
2023-04-06T12:32:50.436Z,15.75
2023-04-06T12:35:18.839Z,16.65
2023-04-06T12:37:48.251Z,15.63
2023-04-06T12:40:18.055Z,16.82
2023-04-06T12:42:47.873Z,16.45
2023-04-06T12:45:17.916Z,15.78
2023-04-06T12:50:46.579Z,16.02
2023-04-06T12:53:16.169Z,15.83
2023-04-06T12:55:45.707Z,15.60
2023-04-06T12:58:15.840Z,16.02
2023-04-06T13:00:45.736Z,15.68
2023-04-06T13:03:15.180Z,15.68
2023-04-06T13:05:49.138Z,15.40
2023-04-06T13:08:19.988Z,16.48
2023-04-06T13:10:50.868Z,15.72
2023-04-06T13:13:24.012Z,15.98
2023-04-06T13:15:54.213Z,16.23
2023-04-06T13:18:24.194Z,15.32
2023-04-06T13:20:53.480Z,15.65
2023-04-06T13:23:22.743Z,16.42
2023-04-06T13:26:08.863Z,15.90
2023-04-06T13:28:39.920Z,16.00
2023-04-06T13:31:10.691Z,16.00
2023-04-06T13:33:41.753Z,16.05
2023-04-06T13:36:11.304Z,15.75
2023-04-06T13:38:40.681Z,15.38
2023-04-06T13:41:10.692Z,15.90
2023-04-06T13:43:40.034Z,16.00
2023-04-06T13:46:09.344Z,16.87
2023-04-06T13:48:38.637Z,16.75
2023-04-06T13:51:15.564Z,16.75
2023-04-06T13:53:44.886Z,15.90
2023-04-06T13:56:14.191Z,16.37
2023-04-06T14:01:46.924Z,15.78
2023-04-06T14:04:16.580Z,16.07
2023-04-06T14:06:47.575Z,15.70
2023-04-06T14:09:16.880Z,16.95
2023-04-06T14:11:46.249Z,17.02
2023-04-06T14:14:15.714Z,16.20
2023-04-06T14:16:47.976Z,17.48
2023-04-06T14:19:19.821Z,16.32
2023-04-06T14:21:49.673Z,16.90
2023-04-06T14:24:20.228Z,17.70
2023-04-06T14:26:49.729Z,17.50
2023-04-06T14:29:19.327Z,17.98
2023-04-06T14:31:50.043Z,17.12
2023-04-06T14:34:40.989Z,18.20
2023-04-06T14:37:12.008Z,17.85
2023-04-06T14:39:41.319Z,18.50
2023-04-06T14:42:10.995Z,17.92
2023-04-06T14:44:41.931Z,18.80
2023-04-06T14:47:14.607Z,19.77
2023-04-06T14:49:43.902Z,18.37
2023-04-06T14:52:13.568Z,18.67
2023-04-06T14:54:42.899Z,18.02
2023-04-06T14:57:12.289Z,18.05
2023-04-06T14:59:41.546Z,18.75
2023-04-06T15:02:11.267Z,18.35
2023-04-06T15:04:41.437Z,18.45
2023-04-06T15:07:12.046Z,18.70
2023-04-06T15:09:41.304Z,18.60
2023-04-06T15:12:10.860Z,18.32
2023-04-06T15:14:40.479Z,18.62
2023-04-06T15:17:10.565Z,17.57
2023-04-06T15:19:39.841Z,16.52
2023-04-06T15:22:09.160Z,18.80
2023-04-06T15:24:38.981Z,17.82
2023-04-06T15:27:08.578Z,18.73
2023-04-06T15:29:38.030Z,18.55
2023-04-06T15:32:09.374Z,20.12
2023-04-06T15:34:38.689Z,18.90
2023-04-06T15:37:08.180Z,19.45
2023-04-06T15:39:37.828Z,19.32
2023-04-06T15:42:07.471Z,19.75
2023-04-06T15:44:36.881Z,19.80
2023-04-06T15:47:06.804Z,19.87
2023-04-06T15:49:36.168Z,19.00
2023-04-06T15:52:05.570Z,19.17
2023-04-06T15:54:36.525Z,19.60
2023-04-06T15:57:05.766Z,19.62
2023-04-06T15:59:35.090Z,20.15
2023-04-06T16:02:04.480Z,18.82
2023-04-06T16:04:33.886Z,17.12
2023-04-06T16:07:03.616Z,18.23
2023-04-06T16:09:33.274Z,17.05
2023-04-06T16:12:02.682Z,18.65
2023-04-06T16:14:32.202Z,17.98
2023-04-06T16:17:02.053Z,18.92
2023-04-06T16:19:31.789Z,18.40
2023-04-06T16:22:01.130Z,18.57
2023-04-06T16:24:30.409Z,19.77
2023-04-06T16:27:00.339Z,19.65
2023-04-06T16:29:31.846Z,19.27
2023-04-06T16:32:02.203Z,20.80
2023-04-06T16:34:35.014Z,20.27
2023-04-06T16:37:04.683Z,20.10
2023-04-06T16:39:34.502Z,20.95
2023-04-06T16:42:04.064Z,19.92
2023-04-06T16:44:33.495Z,19.87
2023-04-06T16:47:02.792Z,20.17
2023-04-06T16:49:32.086Z,20.60
2023-04-06T16:52:03.199Z,20.80
2023-04-06T16:54:34.315Z,21.07
2023-04-06T16:57:05.183Z,21.52
2023-04-06T16:59:35.360Z,21.10
2023-04-06T17:02:04.671Z,21.75
2023-04-06T17:04:34.375Z,21.85
2023-04-06T17:07:03.892Z,22.05
2023-04-06T17:12:03.462Z,22.05
2023-04-06T17:14:32.832Z,21.73
2023-04-06T17:17:03.730Z,22.95
2023-04-06T17:19:33.251Z,22.80
2023-04-06T17:22:03.291Z,24.57
2023-04-06T17:24:32.652Z,25.05
2023-04-06T17:27:02.976Z,24.30
2023-04-06T17:29:32.243Z,25.00
2023-04-06T17:32:01.837Z,24.82
2023-04-06T17:34:31.194Z,26.25
2023-04-06T17:37:00.489Z,25.92
2023-04-06T17:39:29.758Z,27.45
2023-04-06T17:42:00.255Z,26.75
2023-04-06T17:44:29.572Z,27.48
2023-04-06T17:46:59.126Z,26.17
2023-04-06T17:49:28.416Z,26.12
2023-04-06T17:51:58.079Z,27.10
2023-04-06T17:54:27.350Z,27.32
2023-04-06T17:56:57.479Z,26.50
2023-04-06T17:59:27.167Z,27.75
2023-04-06T18:01:56.751Z,28.92
2023-04-06T18:04:26.673Z,29.15
2023-04-06T18:06:56.502Z,29.77
2023-04-06T18:11:57.308Z,30.08
2023-04-06T18:14:27.126Z,30.65
2023-04-06T18:16:56.750Z,30.95
2023-04-06T18:19:27.960Z,33.00
2023-04-06T18:21:57.493Z,32.25
2023-04-06T18:24:41.377Z,32.78
2023-04-06T18:26:58.816Z,32.42
2023-04-06T18:29:29.763Z,32.45
2023-04-06T18:31:59.157Z,35.10
2023-04-06T18:34:30.155Z,36.63
2023-04-06T18:37:01.759Z,35.68
2023-04-06T18:39:31.564Z,35.68
2023-04-06T18:42:01.476Z,36.48
2023-04-06T18:44:34.156Z,36.40
2023-04-06T18:47:03.729Z,37.40
2023-04-06T18:49:34.404Z,37.95
2023-04-06T18:52:08.440Z,39.45
2023-04-06T18:54:37.849Z,37.05
2023-04-06T18:57:07.236Z,36.33
2023-04-06T18:59:36.645Z,44.05
2023-04-06T19:02:06.704Z,38.98
2023-04-06T19:04:36.212Z,46.28
2023-04-06T19:07:06.588Z,47.78
2023-04-06T19:09:36.023Z,43.17
2023-04-06T19:12:05.560Z,36.13
2023-04-06T19:14:34.933Z,37.08
2023-04-06T19:17:04.446Z,37.23
2023-04-06T19:19:34.338Z,28.42
2023-04-06T19:22:03.830Z,37.30
2023-04-06T19:24:33.397Z,28.27
2023-04-06T19:27:03.349Z,23.77
2023-04-06T19:29:32.772Z,23.45
2023-04-06T19:32:02.691Z,20.37
2023-04-06T19:34:32.416Z,21.73
2023-04-06T19:37:02.719Z,20.17
2023-04-06T19:39:32.160Z,21.02
2023-04-06T19:42:01.626Z,19.42
2023-04-06T19:44:31.029Z,19.45
2023-04-06T19:47:00.941Z,17.85
2023-04-06T19:49:30.277Z,17.73
2023-04-06T19:52:00.046Z,15.25
2023-04-06T19:54:29.362Z,14.78
2023-04-06T19:56:58.737Z,17.30
2023-04-06T19:59:28.286Z,18.15
2023-04-06T20:01:58.336Z,17.75
2023-04-06T20:04:27.965Z,19.00
2023-04-06T20:06:57.332Z,20.02
2023-04-06T20:09:27.220Z,21.73
2023-04-06T20:11:56.706Z,21.73
2023-04-06T20:14:26.546Z,21.20
2023-04-06T20:16:56.239Z,25.17
2023-04-06T20:19:25.857Z,23.07
2023-04-06T20:21:55.765Z,23.70
2023-04-06T20:24:25.216Z,27.35
2023-04-06T20:26:54.756Z,22.45
2023-04-06T20:29:24.000Z,23.00
2023-04-06T20:31:53.667Z,21.60
2023-04-06T20:34:24.607Z,17.57
2023-04-06T20:36:53.934Z,16.93
2023-04-06T20:39:24.121Z,22.93
2023-04-06T20:41:53.710Z,26.35
2023-04-06T20:44:24.628Z,27.95
2023-04-06T20:46:54.204Z,22.35
2023-04-06T20:49:24.192Z,17.17
2023-04-06T20:51:53.651Z,24.67
2023-04-06T20:54:23.091Z,15.88
2023-04-06T20:56:52.457Z,16.05
2023-04-06T20:59:21.733Z,16.02
2023-04-06T21:01:52.866Z,18.75
2023-04-06T21:04:23.199Z,12.75
2023-04-06T21:06:53.790Z,11.85
2023-04-06T21:09:24.882Z,11.33
2023-04-06T21:11:54.847Z,12.15
2023-04-06T21:14:24.613Z,11.68
2023-04-06T21:16:55.851Z,11.97
2023-04-06T21:19:25.784Z,11.68
2023-04-06T21:21:55.874Z,10.93
2023-04-06T21:24:25.949Z,11.78
2023-04-06T21:26:55.270Z,10.13
2023-04-06T21:29:24.778Z,8.50
2023-04-06T21:31:55.624Z,9.45
2023-04-06T21:34:25.153Z,8.60
2023-04-06T21:36:54.481Z,7.33
2023-04-06T21:39:25.590Z,8.10
2023-04-06T21:41:54.837Z,7.20
2023-04-06T21:44:24.360Z,8.48
2023-04-06T21:46:53.739Z,7.20
2023-04-06T21:49:23.151Z,8.68
2023-04-06T21:51:52.461Z,6.75
2023-04-06T21:54:21.811Z,6.55
2023-04-06T21:56:51.153Z,6.55
2023-04-06T21:59:20.818Z,6.65
2023-04-06T22:01:50.279Z,6.25
2023-04-06T22:04:20.479Z,6.80
2023-04-06T22:06:51.082Z,6.47
2023-04-06T22:09:20.482Z,7.00
2023-04-06T22:11:49.854Z,6.53
2023-04-06T22:14:19.969Z,6.53
2023-04-06T22:16:49.429Z,6.95
2023-04-06T22:19:18.773Z,7.30
2023-04-06T22:21:48.158Z,7.42
2023-04-06T22:24:18.089Z,7.10
2023-04-06T22:26:47.648Z,7.80
2023-04-06T22:29:17.585Z,8.20
2023-04-06T22:31:47.386Z,8.83
2023-04-06T22:34:17.120Z,9.23
2023-04-06T22:36:46.938Z,9.20
2023-04-06T22:39:16.478Z,9.28
2023-04-06T22:41:46.011Z,9.23
2023-04-06T22:44:15.707Z,8.78
2023-04-06T22:46:45.504Z,9.13
2023-04-06T22:49:14.779Z,9.18
2023-04-06T22:51:44.464Z,8.78
2023-04-06T22:54:14.345Z,9.13
2023-04-06T22:56:43.960Z,10.00
2023-04-06T22:59:13.253Z,9.80
2023-04-06T23:01:42.633Z,10.53
2023-04-06T23:04:12.140Z,9.68
2023-04-06T23:06:41.502Z,10.48
2023-04-06T23:09:10.768Z,11.68
2023-04-06T23:11:40.378Z,12.43
2023-04-06T23:14:09.669Z,12.35
2023-04-06T23:16:39.180Z,12.73
2023-04-06T23:19:08.421Z,12.53
2023-04-06T23:21:37.736Z,13.03
2023-04-06T23:24:07.347Z,13.43
2023-04-06T23:26:36.616Z,13.93
2023-04-06T23:29:05.991Z,14.13
2023-04-06T23:31:35.284Z,15.25
2023-04-06T23:34:04.755Z,15.83
2023-04-06T23:36:34.417Z,16.42
2023-04-06T23:39:03.722Z,16.75
2023-04-06T23:41:33.334Z,17.10
2023-04-06T23:44:02.957Z,17.42
2023-04-06T23:46:32.270Z,18.73
2023-04-06T23:49:01.778Z,18.62
2023-04-06T23:51:31.833Z,19.05
2023-04-06T23:54:01.425Z,18.82
2023-04-06T23:56:30.983Z,19.85
2023-04-06T23:59:00.570Z,19.57
